createdAt,value
2019-02-06T00:01:15.465Z,91.48
2019-02-06T00:03:46.868Z,91.44
2019-02-06T00:06:18.343Z,91.82
2019-02-06T00:08:49.985Z,91.74
2019-02-06T00:11:21.310Z,91.76
2019-02-06T00:13:52.526Z,91.95
2019-02-06T00:16:23.876Z,91.95
2019-02-06T00:18:55.662Z,92.15
2019-02-06T00:21:27.039Z,92.15
2019-02-06T00:23:59.186Z,92.12
2019-02-06T00:26:30.571Z,91.62
2019-02-06T00:29:01.955Z,91.73
2019-02-06T00:31:33.409Z,91.76
2019-02-06T00:34:04.984Z,92.22
2019-02-06T00:36:37.414Z,92.12
2019-02-06T00:39:11.111Z,92.29
2019-02-06T00:41:42.677Z,92.42
2019-02-06T00:44:14.147Z,92.42
2019-02-06T00:46:45.445Z,92.49
2019-02-06T00:49:17.090Z,92.41
2019-02-06T00:51:48.505Z,92.41
2019-02-06T00:54:19.798Z,91.94
2019-02-06T00:56:51.422Z,91.92
2019-02-06T00:59:22.900Z,91.61
2019-02-06T01:01:54.736Z,91.61
2019-02-06T01:04:26.509Z,92.11
2019-02-06T01:06:57.964Z,92.11
2019-02-06T01:09:29.998Z,92.19
2019-02-06T01:12:01.435Z,92.09
2019-02-06T01:14:33.755Z,92.25
2019-02-06T01:17:05.300Z,92.25
2019-02-06T01:19:37.097Z,92.27
2019-02-06T01:22:08.608Z,92.39
2019-02-06T01:24:40.289Z,92.39
2019-02-06T01:27:12.210Z,92.44
2019-02-06T01:29:43.870Z,92.53
2019-02-06T01:32:15.312Z,91.94
2019-02-06T01:34:46.912Z,92.12
2019-02-06T01:37:18.699Z,92.45
2019-02-06T01:39:50.753Z,92.45
2019-02-06T01:42:22.638Z,92.37
2019-02-06T01:44:54.724Z,92.55
2019-02-06T01:47:26.466Z,92.25
2019-02-06T01:49:57.928Z,91.94
2019-02-06T01:52:30.219Z,91.85
2019-02-06T01:55:02.048Z,92.63
2019-02-06T01:57:33.449Z,92.16
2019-02-06T02:00:07.235Z,92.16
2019-02-06T02:02:42.457Z,91.91
2019-02-06T02:05:15.794Z,91.98
2019-02-06T02:07:47.905Z,91.74
2019-02-06T02:10:21.566Z,91.84
2019-02-06T02:12:53.212Z,85.73
2019-02-06T02:15:24.932Z,83.74
2019-02-06T02:17:57.272Z,83.52
2019-02-06T02:20:29.989Z,83.52
2019-02-06T02:23:01.633Z,82.54
2019-02-06T02:25:33.341Z,82.91
2019-02-06T02:28:05.126Z,82.91
2019-02-06T02:30:43.734Z,82.10
2019-02-06T02:33:15.572Z,81.83
2019-02-06T02:35:47.583Z,81.83
2019-02-06T02:38:19.103Z,82.24
2019-02-06T02:40:51.243Z,81.81
2019-02-06T02:43:22.503Z,82.30
2019-02-06T02:45:54.125Z,82.17
2019-02-06T02:48:25.423Z,82.42
2019-02-06T02:50:57.507Z,82.42
2019-02-06T02:53:28.969Z,82.99
2019-02-06T02:56:00.770Z,82.99
2019-02-06T02:58:32.082Z,84.68
2019-02-06T03:01:23.719Z,84.68
2019-02-06T03:04:15.595Z,85.33
2019-02-06T03:06:47.201Z,86.42
2019-02-06T03:09:19.997Z,86.42
2019-02-06T03:11:51.751Z,86.66
2019-02-06T03:14:23.310Z,86.59
2019-02-06T03:16:55.335Z,86.13
2019-02-06T03:19:26.915Z,86.13
2019-02-06T03:21:58.669Z,86.24
2019-02-06T03:24:30.143Z,86.41
2019-02-06T03:27:01.630Z,86.84
2019-02-06T03:29:33.101Z,86.43
2019-02-06T03:32:04.960Z,86.50
2019-02-06T03:34:36.189Z,86.25
2019-02-06T03:37:07.755Z,86.43
2019-02-06T03:39:39.574Z,86.24
2019-02-06T03:42:11.602Z,85.97
2019-02-06T03:44:43.411Z,86.53
2019-02-06T03:47:15.323Z,86.53
2019-02-06T03:49:46.512Z,85.81
2019-02-06T03:52:18.380Z,86.01
2019-02-06T03:54:49.881Z,86.01
2019-02-06T03:57:21.570Z,86.03
2019-02-06T03:59:53.113Z,86.27
2019-02-06T04:02:24.881Z,86.70
2019-02-06T04:04:56.477Z,85.52
2019-02-06T04:07:27.928Z,85.46
2019-02-06T04:09:59.439Z,85.43
2019-02-06T04:12:30.796Z,85.43
2019-02-06T04:15:02.870Z,85.23
2019-02-06T04:17:34.722Z,85.23
2019-02-06T04:20:07.301Z,85.38
2019-02-06T04:22:38.777Z,85.23
2019-02-06T04:25:10.535Z,86.70
2019-02-06T04:27:42.093Z,85.46
2019-02-06T04:30:14.457Z,85.46
2019-02-06T04:32:46.391Z,87.49
2019-02-06T04:35:18.256Z,86.36
2019-02-06T04:37:50.118Z,85.80
2019-02-06T04:40:22.143Z,85.80
2019-02-06T04:42:53.797Z,87.77
2019-02-06T04:45:25.604Z,88.58
2019-02-06T04:47:56.919Z,85.95
2019-02-06T04:50:28.492Z,88.47
2019-02-06T04:52:59.811Z,87.59
2019-02-06T04:55:32.742Z,87.59
2019-02-06T04:58:04.319Z,86.94
2019-02-06T05:00:35.941Z,87.69
2019-02-06T05:03:07.316Z,86.74
2019-02-06T05:05:38.675Z,88.50
2019-02-06T05:08:11.556Z,89.21
2019-02-06T05:10:43.081Z,89.21
2019-02-06T05:13:14.372Z,87.89
2019-02-06T05:15:45.933Z,87.56
2019-02-06T05:18:17.692Z,87.56
2019-02-06T05:20:49.293Z,85.92
2019-02-06T05:23:20.823Z,86.59
2019-02-06T05:25:52.856Z,85.00
2019-02-06T05:28:24.434Z,85.00
2019-02-06T05:30:56.145Z,85.85
2019-02-06T05:33:27.493Z,85.01
2019-02-06T05:35:59.293Z,84.14
2019-02-06T05:38:31.587Z,84.03
2019-02-06T05:41:03.151Z,83.83
2019-02-06T05:43:34.978Z,84.30
2019-02-06T05:46:06.503Z,84.30
2019-02-06T05:48:38.036Z,84.19
2019-02-06T05:51:09.547Z,84.48
2019-02-06T05:53:41.268Z,83.80
2019-02-06T05:56:12.682Z,83.80
2019-02-06T05:58:44.142Z,83.27
2019-02-06T06:01:17.467Z,83.17
2019-02-06T06:03:49.048Z,83.72
2019-02-06T06:06:20.626Z,83.90
2019-02-06T06:08:53.221Z,83.90
2019-02-06T06:11:24.389Z,83.20
2019-02-06T06:13:58.563Z,83.20
2019-02-06T06:16:30.216Z,82.50
2019-02-06T06:19:01.777Z,82.50
2019-02-06T06:21:33.649Z,82.94
2019-02-06T06:24:05.342Z,82.68
2019-02-06T06:26:39.506Z,82.68
2019-02-06T06:29:11.116Z,81.27
2019-02-06T06:31:42.698Z,80.94
2019-02-06T06:34:14.285Z,80.94
2019-02-06T06:36:46.100Z,79.35
2019-02-06T06:39:17.918Z,79.21
2019-02-06T06:41:49.481Z,79.21
2019-02-06T06:44:21.201Z,79.43
2019-02-06T06:46:52.688Z,79.12
2019-02-06T06:49:24.079Z,78.09
2019-02-06T06:51:55.951Z,78.09
2019-02-06T06:54:27.356Z,77.71
2019-02-06T06:56:58.686Z,78.13
2019-02-06T06:59:30.107Z,77.82
2019-02-06T07:02:01.528Z,77.82
2019-02-06T07:04:33.116Z,78.37
2019-02-06T07:07:04.563Z,78.53
2019-02-06T07:09:36.205Z,77.75
2019-02-06T07:12:07.964Z,78.54
2019-02-06T07:14:39.765Z,78.50
2019-02-06T07:17:11.409Z,78.87
2019-02-06T07:19:42.887Z,79.50
2019-02-06T07:22:14.656Z,79.72
2019-02-06T07:24:46.321Z,79.77
2019-02-06T07:27:20.922Z,79.77
2019-02-06T07:29:51.254Z,80.14
2019-02-06T07:32:23.076Z,80.60
2019-02-06T07:34:54.585Z,80.60
2019-02-06T07:37:29.605Z,80.61
2019-02-06T07:39:59.974Z,80.61
2019-02-06T07:42:31.873Z,79.54
2019-02-06T07:45:03.923Z,79.61
2019-02-06T07:47:35.195Z,79.72
2019-02-06T07:50:07.898Z,79.44
2019-02-06T07:52:39.300Z,79.16
2019-02-06T07:55:10.876Z,79.16
2019-02-06T07:57:45.283Z,78.44
2019-02-06T08:00:17.210Z,78.44
2019-02-06T08:02:49.819Z,77.93
2019-02-06T08:05:21.627Z,75.66
2019-02-06T08:07:53.407Z,75.66
2019-02-06T08:10:30.443Z,76.36
2019-02-06T08:13:02.580Z,75.07
2019-02-06T08:15:34.182Z,75.19
2019-02-06T08:18:06.957Z,75.19
2019-02-06T08:20:38.829Z,75.42
2019-02-06T08:23:10.748Z,74.10
2019-02-06T08:25:41.868Z,73.85
2019-02-06T08:28:13.559Z,74.05
2019-02-06T08:30:44.885Z,75.18
2019-02-06T08:33:17.331Z,75.18
2019-02-06T08:35:48.545Z,75.39
2019-02-06T08:38:20.219Z,74.15
2019-02-06T08:40:51.469Z,72.25
2019-02-06T08:43:24.493Z,72.25
2019-02-06T08:45:56.807Z,73.93
2019-02-06T08:48:28.626Z,73.93
2019-02-06T08:51:00.045Z,72.84
2019-02-06T08:53:32.057Z,73.96
2019-02-06T08:56:03.609Z,74.11
2019-02-06T08:58:35.788Z,73.68
2019-02-06T09:01:07.416Z,73.74
2019-02-06T09:03:38.827Z,73.62
2019-02-06T09:06:10.358Z,73.72
2019-02-06T09:08:41.792Z,74.25
2019-02-06T09:11:13.336Z,73.90
2019-02-06T09:13:44.647Z,73.90
2019-02-06T09:16:16.558Z,74.84
2019-02-06T09:18:48.410Z,74.84
2019-02-06T09:21:19.880Z,75.66
2019-02-06T09:23:51.398Z,76.36
2019-02-06T09:26:23.037Z,76.68
2019-02-06T09:28:54.386Z,77.17
2019-02-06T09:31:25.913Z,77.41
2019-02-06T09:33:57.385Z,77.41
2019-02-06T09:36:28.858Z,77.77
2019-02-06T09:39:11.097Z,77.52
2019-02-06T09:41:36.324Z,77.44
2019-02-06T09:44:07.866Z,78.17
2019-02-06T09:46:40.799Z,78.17
2019-02-06T09:49:15.042Z,78.34
2019-02-06T09:51:46.099Z,78.46
2019-02-06T09:54:18.948Z,78.38
2019-02-06T09:56:50.857Z,78.18
2019-02-06T09:59:22.514Z,79.07
2019-02-06T10:01:54.625Z,79.07
2019-02-06T10:04:27.080Z,79.21
2019-02-06T10:06:59.069Z,79.36
2019-02-06T10:09:30.763Z,79.47
2019-02-06T10:12:02.468Z,80.18
2019-02-06T10:14:35.056Z,80.18
2019-02-06T10:17:07.003Z,79.83
2019-02-06T10:19:38.928Z,79.82
2019-02-06T10:22:10.427Z,79.81
2019-02-06T10:24:41.978Z,79.98
2019-02-06T10:27:14.096Z,80.32
2019-02-06T10:29:45.406Z,80.59
2019-02-06T10:32:16.683Z,80.88
2019-02-06T10:34:47.824Z,80.25
2019-02-06T10:37:19.460Z,80.25
2019-02-06T10:39:51.122Z,80.41
2019-02-06T10:42:22.603Z,80.31
2019-02-06T10:44:54.381Z,80.23
2019-02-06T10:47:25.943Z,80.08
2019-02-06T10:49:57.407Z,80.93
2019-02-06T10:52:28.883Z,80.64
2019-02-06T10:55:00.482Z,80.64
2019-02-06T10:57:32.170Z,81.19
2019-02-06T11:00:03.901Z,81.14
2019-02-06T11:02:36.971Z,81.14
2019-02-06T11:05:08.580Z,80.90
2019-02-06T11:07:40.367Z,80.90
2019-02-06T11:10:12.500Z,81.46
2019-02-06T11:12:44.578Z,81.56
2019-02-06T11:15:16.312Z,81.56
2019-02-06T11:17:48.105Z,81.85
2019-02-06T11:20:20.519Z,81.90
2019-02-06T11:22:52.184Z,81.82
2019-02-06T11:25:24.022Z,81.82
2019-02-06T11:27:56.015Z,82.91
2019-02-06T11:30:29.789Z,82.91
2019-02-06T11:33:01.539Z,82.92
2019-02-06T11:35:33.454Z,82.42
2019-02-06T11:38:06.404Z,82.46
2019-02-06T11:40:38.263Z,82.65
2019-02-06T11:43:10.291Z,82.58
2019-02-06T11:45:42.464Z,82.58
2019-02-06T11:48:14.252Z,82.72
2019-02-06T11:50:46.069Z,82.72
2019-02-06T11:53:26.535Z,85.83
2019-02-06T11:55:58.930Z,87.67
2019-02-06T11:58:30.405Z,87.67
2019-02-06T12:01:21.131Z,90.24
2019-02-06T12:03:52.720Z,90.92
2019-02-06T12:06:24.327Z,90.92
2019-02-06T12:08:56.130Z,92.09
2019-02-06T12:11:28.117Z,92.07
2019-02-06T12:13:59.674Z,93.12
2019-02-06T12:16:31.503Z,93.16
2019-02-06T12:19:02.834Z,93.04
2019-02-06T12:21:34.728Z,93.25
2019-02-06T12:24:07.510Z,93.25
2019-02-06T12:26:39.250Z,93.70
2019-02-06T12:29:11.951Z,94.01
2019-02-06T12:31:43.310Z,94.70
2019-02-06T12:34:15.688Z,94.70
2019-02-06T12:36:46.843Z,95.59
2019-02-06T12:39:18.101Z,95.88
2019-02-06T12:41:49.158Z,95.91
2019-02-06T12:44:21.683Z,95.05
2019-02-06T12:46:53.081Z,95.65
2019-02-06T12:49:24.794Z,96.35
2019-02-06T12:51:56.458Z,96.09
2019-02-06T12:54:27.961Z,96.55
2019-02-06T12:56:59.775Z,96.68
2019-02-06T12:59:31.421Z,97.24
2019-02-06T13:02:03.152Z,97.18
2019-02-06T13:04:35.238Z,97.18
2019-02-06T13:07:06.688Z,97.56
2019-02-06T13:09:38.578Z,97.27
2019-02-06T13:12:11.552Z,96.89
2019-02-06T13:14:43.778Z,96.58
2019-02-06T13:17:15.419Z,97.06
2019-02-06T13:19:46.727Z,97.46
2019-02-06T13:22:18.207Z,97.46
2019-02-06T13:24:49.958Z,97.35
2019-02-06T13:27:22.742Z,97.91
2019-02-06T13:29:54.159Z,97.91
2019-02-06T13:32:28.723Z,98.83
2019-02-06T13:35:00.333Z,98.77
2019-02-06T13:37:32.274Z,99.13
2019-02-06T13:40:03.528Z,99.13
2019-02-06T13:42:34.620Z,100.00
2019-02-06T13:45:07.760Z,99.87
2019-02-06T13:47:40.451Z,100.00
2019-02-06T13:50:21.547Z,100.00
2019-02-06T13:52:45.654Z,100.00
2019-02-06T13:55:18.861Z,100.00
2019-02-06T13:57:51.054Z,100.00
2019-02-06T14:00:24.515Z,100.00
2019-02-06T14:02:56.255Z,100.00
2019-02-06T14:05:29.115Z,100.00
2019-02-06T14:08:02.731Z,100.00
2019-02-06T14:10:33.998Z,100.00
2019-02-06T14:13:08.537Z,100.00
2019-02-06T14:15:42.128Z,100.00
2019-02-06T14:18:13.762Z,99.05
2019-02-06T14:20:45.847Z,99.49
2019-02-06T14:23:57.479Z,99.49
2019-02-06T14:26:45.063Z,99.81
2019-02-06T14:29:31.396Z,99.78
2019-02-06T14:32:16.576Z,99.71
2019-02-06T14:35:37.711Z,99.63
2019-02-06T14:38:50.139Z,99.63
2019-02-06T14:42:00.300Z,99.59
2019-02-06T14:45:09.313Z,99.52
2019-02-06T14:48:13.448Z,97.59
2019-02-06T14:50:59.560Z,97.59
2019-02-06T14:54:11.198Z,96.82
2019-02-06T14:57:20.235Z,96.82
2019-02-06T15:00:18.095Z,96.21
2019-02-06T15:03:28.804Z,96.21
2019-02-06T15:06:39.220Z,95.39
2019-02-06T15:09:46.144Z,95.39
2019-02-06T15:12:57.271Z,95.59
2019-02-06T15:15:59.767Z,95.59
2019-02-06T15:19:25.902Z,95.18
2019-02-06T15:22:25.779Z,94.53
2019-02-06T15:25:52.304Z,92.95
2019-02-06T15:28:59.751Z,90.87
2019-02-06T15:31:59.165Z,90.87
2019-02-06T15:35:07.310Z,90.90
2019-02-06T15:38:02.096Z,88.98
2019-02-06T15:41:13.160Z,89.34
2019-02-06T15:44:38.687Z,89.53
2019-02-06T15:47:51.360Z,89.68
2019-02-06T15:50:58.884Z,89.68
2019-02-06T15:53:44.908Z,90.37
2019-02-06T15:56:41.876Z,90.37
2019-02-06T15:59:59.340Z,90.83
2019-02-06T16:02:42.817Z,91.07
2019-02-06T16:05:50.068Z,91.02
2019-02-06T16:08:53.177Z,91.02
2019-02-06T16:12:00.363Z,91.31
2019-02-06T16:15:07.030Z,91.31
2019-02-06T16:18:25.132Z,91.83
2019-02-06T16:21:29.636Z,91.83
2019-02-06T16:24:35.412Z,92.54
2019-02-06T16:27:26.277Z,92.54
2019-02-06T16:30:43.966Z,92.12
2019-02-06T16:33:37.316Z,92.34
2019-02-06T16:36:41.753Z,92.34
2019-02-06T16:39:48.761Z,92.69
2019-02-06T16:43:08.839Z,92.69
2019-02-06T16:46:17.895Z,92.08
2019-02-06T16:49:18.262Z,92.08
2019-02-06T16:52:39.531Z,91.53
2019-02-06T16:55:57.062Z,92.06
2019-02-06T16:58:43.039Z,91.74
2019-02-06T17:01:49.929Z,90.78
2019-02-06T17:04:34.065Z,90.78
2019-02-06T17:07:56.101Z,91.56
2019-02-06T17:10:58.677Z,91.56
2019-02-06T17:14:17.526Z,91.13
2019-02-06T17:17:13.304Z,90.77
2019-02-06T17:20:27.224Z,90.70
2019-02-06T17:23:22.062Z,90.67
2019-02-06T17:26:20.320Z,91.09
2019-02-06T17:29:24.100Z,91.09
2019-02-06T17:32:22.420Z,91.23
2019-02-06T17:35:29.152Z,91.23
2019-02-06T17:38:29.069Z,91.23
2019-02-06T17:41:23.927Z,91.21
2019-02-06T17:44:12.682Z,91.00
2019-02-06T17:47:13.684Z,90.43
2019-02-06T17:50:27.398Z,90.46
2019-02-06T17:53:59.998Z,90.04
2019-02-06T17:56:31.397Z,89.53
2019-02-06T17:59:05.741Z,89.53
2019-02-06T18:01:49.218Z,88.95
2019-02-06T18:04:33.306Z,88.61
2019-02-06T18:07:07.050Z,88.69
2019-02-06T18:09:38.913Z,88.42
2019-02-06T18:12:10.789Z,89.11
2019-02-06T18:14:43.252Z,88.64
2019-02-06T18:17:14.811Z,88.43
2019-02-06T18:19:47.328Z,88.46
2019-02-06T18:22:19.106Z,88.46
2019-02-06T18:24:50.759Z,88.16
2019-02-06T18:27:22.220Z,88.20
2019-02-06T18:29:53.896Z,89.15
2019-02-06T18:32:25.247Z,89.15
2019-02-06T18:34:56.690Z,89.49
2019-02-06T18:37:28.017Z,89.74
2019-02-06T18:40:02.661Z,89.40
2019-02-06T18:42:38.693Z,89.59
2019-02-06T18:45:14.869Z,89.59
2019-02-06T18:47:47.246Z,89.40
2019-02-06T18:50:22.915Z,90.90
2019-02-06T18:52:54.550Z,90.90
2019-02-06T18:55:27.340Z,90.61
2019-02-06T18:57:59.313Z,90.61
2019-02-06T19:00:32.716Z,91.64
2019-02-06T19:03:11.402Z,91.78
2019-02-06T19:05:42.554Z,91.81
2019-02-06T19:08:17.117Z,92.18
2019-02-06T19:10:54.022Z,92.18
2019-02-06T19:13:25.730Z,91.74
2019-02-06T19:15:57.013Z,92.50
2019-02-06T19:18:28.049Z,92.16
2019-02-06T19:21:03.160Z,93.07
2019-02-06T19:23:41.167Z,93.07
2019-02-06T19:26:12.513Z,93.43
2019-02-06T19:28:49.665Z,93.66
2019-02-06T19:31:24.784Z,93.66
2019-02-06T19:33:56.127Z,93.52
2019-02-06T19:36:27.977Z,93.59
2019-02-06T19:39:01.263Z,93.22
2019-02-06T19:41:37.896Z,93.83
2019-02-06T19:44:12.540Z,93.30
2019-02-06T19:46:49.144Z,93.57
2019-02-06T19:49:20.382Z,93.57
2019-02-06T19:51:51.673Z,93.95
2019-02-06T19:54:22.862Z,93.58
2019-02-06T19:56:54.125Z,93.51
2019-02-06T19:59:30.247Z,93.66
2019-02-06T20:02:09.128Z,93.66
2019-02-06T20:04:40.475Z,94.06
2019-02-06T20:07:11.673Z,94.77
2019-02-06T20:09:53.017Z,94.77
2019-02-06T20:12:37.602Z,94.21
2019-02-06T20:15:15.285Z,93.91
2019-02-06T20:17:49.657Z,94.44
2019-02-06T20:20:31.399Z,94.44
2019-02-06T20:23:02.949Z,94.69
2019-02-06T20:25:34.485Z,94.56
2019-02-06T20:28:05.875Z,94.56
2019-02-06T20:30:43.026Z,94.62
2019-02-06T20:33:17.855Z,95.08
2019-02-06T20:35:50.511Z,94.97
2019-02-06T20:38:22.096Z,93.82
2019-02-06T20:41:00.666Z,94.66
2019-02-06T20:44:07.007Z,94.66
2019-02-06T20:46:38.228Z,93.93
2019-02-06T20:49:09.667Z,94.10
2019-02-06T20:51:42.167Z,93.77
2019-02-06T20:54:13.584Z,93.77
2019-02-06T20:56:44.931Z,93.69
2019-02-06T20:59:16.083Z,93.38
2019-02-06T21:01:47.459Z,93.27
2019-02-06T21:04:18.718Z,93.07
2019-02-06T21:06:49.966Z,93.58
2019-02-06T21:09:21.610Z,93.32
2019-02-06T21:11:53.252Z,93.42
2019-02-06T21:14:24.766Z,93.24
2019-02-06T21:16:56.705Z,92.97
2019-02-06T21:19:28.307Z,93.19
2019-02-06T21:21:59.631Z,93.46
2019-02-06T21:24:30.787Z,93.41
2019-02-06T21:27:02.331Z,93.59
2019-02-06T21:29:33.590Z,93.59
2019-02-06T21:32:05.400Z,93.37
2019-02-06T21:34:36.910Z,93.05
2019-02-06T21:37:08.334Z,93.82
2019-02-06T21:39:39.529Z,93.68
2019-02-06T21:42:11.025Z,93.68
2019-02-06T21:44:42.541Z,94.18
2019-02-06T21:47:14.404Z,93.44
2019-02-06T21:49:45.798Z,93.49
2019-02-06T21:52:17.618Z,93.58
2019-02-06T21:54:49.123Z,93.76
2019-02-06T21:57:20.638Z,93.42
2019-02-06T21:59:52.000Z,94.16
2019-02-06T22:02:23.253Z,94.16
2019-02-06T22:04:54.364Z,93.46
2019-02-06T22:07:25.920Z,93.74
2019-02-06T22:09:57.178Z,93.71
2019-02-06T22:12:28.776Z,93.71
2019-02-06T22:14:59.977Z,93.33
2019-02-06T22:17:31.345Z,93.23
2019-02-06T22:20:02.477Z,93.48
2019-02-06T22:22:33.836Z,92.94
2019-02-06T22:25:06.156Z,93.01
2019-02-06T22:27:37.809Z,93.01
2019-02-06T22:30:12.093Z,93.35
2019-02-06T22:32:43.556Z,93.54
2019-02-06T22:35:14.871Z,92.80
2019-02-06T22:37:46.888Z,93.13
2019-02-06T22:40:19.889Z,93.13
2019-02-06T22:42:51.735Z,92.96
2019-02-06T22:45:25.025Z,93.68
2019-02-06T22:47:56.468Z,93.25
2019-02-06T22:50:28.900Z,93.25
2019-02-06T22:53:00.694Z,94.44
2019-02-06T22:55:32.304Z,94.44
2019-02-06T22:58:04.005Z,94.16
2019-02-06T23:01:00.519Z,94.38
2019-02-06T23:03:35.712Z,94.71
2019-02-06T23:06:08.533Z,94.71
2019-02-06T23:08:39.763Z,94.94
2019-02-06T23:11:12.431Z,94.94
2019-02-06T23:13:45.614Z,95.10
2019-02-06T23:16:17.337Z,95.04
2019-02-06T23:18:48.626Z,94.87
2019-02-06T23:21:20.703Z,94.85
2019-02-06T23:23:52.155Z,94.85
2019-02-06T23:26:27.124Z,94.40
2019-02-06T23:28:58.990Z,94.96
2019-02-06T23:31:30.856Z,94.96
2019-02-06T23:34:02.235Z,95.50
2019-02-06T23:36:33.966Z,95.25
2019-02-06T23:39:13.599Z,95.62
2019-02-06T23:41:44.961Z,95.59
2019-02-06T23:44:16.692Z,95.59
2019-02-06T23:46:48.564Z,95.27
2019-02-06T23:49:19.832Z,95.16
2019-02-06T23:51:51.190Z,95.09
2019-02-06T23:54:22.440Z,95.09
2019-02-06T23:56:54.573Z,95.71
2019-02-06T23:59:26.334Z,96.02
